Aviation Digital Data Service (ADDS)

Output produced by METARs form (1309 UTC 22 April 2021)
found at http://aviationweather.gov/metar/data/
 
METAR text: ETNT 221246Z 32016KT 9999 SCT025 10/01 Q1025 BLACKBLU+BLU+ TEMPO BLU
Conditions at: ETNT (WITTMUNDHAVEN(GA, DE) observed 1246 UTC 22 April 2021
Temperature: 10.0°C (50°F)
Dewpoint: 1.0°C (34°F) [RH = 53%]
Pressure (altimeter): 30.27 inches Hg (1025.0 mb)
Winds: from the NW (320 degrees) at 18 MPH (16 knots; 8.2 m/s)
Visibility: 6 or more miles (10+ km)
Ceiling: at least 12,000 feet AGL
Clouds: scattered clouds at 2500 feet AGL
Weather: no significant weather observed at this time

METAR text: ETNT 221225Z 32014KT 9999 SCT025 09/01 Q1025 BLU+BLU+ TEMPO BLU
Conditions at: ETNT (WITTMUNDHAVEN(GA, DE) observed 1225 UTC 22 April 2021
Temperature: 9.0°C (48°F)
Dewpoint: 1.0°C (34°F) [RH = 57%]
Pressure (altimeter): 30.27 inches Hg (1025.0 mb)
Winds: from the NW (320 degrees) at 16 MPH (14 knots; 7.2 m/s)
Visibility: 6 or more miles (10+ km)
Ceiling: at least 12,000 feet AGL
Clouds: scattered clouds at 2500 feet AGL
Weather: no significant weather observed at this time

METAR text: ETNT 221220Z 32013G23KT 9999 SCT025 09/01 Q1025 BLU+BLU+ TEMPO BLU
Conditions at: ETNT (WITTMUNDHAVEN(GA, DE) observed 1220 UTC 22 April 2021
Temperature: 9.0°C (48°F)
Dewpoint: 1.0°C (34°F) [RH = 57%]
Pressure (altimeter): 30.27 inches Hg (1025.0 mb)
Winds: from the NW (320 degrees) at 15 MPH (13 knots; 6.7 m/s)
gusting to 26 MPH (23 knots; 11.8 m/s)
Visibility: 6 or more miles (10+ km)
Ceiling: at least 12,000 feet AGL
Clouds: scattered clouds at 2500 feet AGL
Weather: no significant weather observed at this time

Forecast for: ETNT (WITTMUNDHAVEN(GA, DE)
Text: TAF ETNT 221020Z 2211/2220 32015G25KT 9999 NSW FEW030 SCT230
Forecast period: 1100 to 2000 UTC 22 April 2021
Forecast type: FROM: standard forecast or significant change
Winds: from the NW (320 degrees) at 17 MPH (15 knots; 7.7 m/s)
gusting to 29 MPH (25 knots; 12.9 m/s)
Visibility: 6 or more miles (10+ km)
Ceiling: at least 12,000 feet AGL
Clouds: few clouds at 3000 feet AGL
scattered clouds at 23000 feet AGL
Weather: NSW  (no significant weather)
Text: TEMPO 2211/2218 33018G30KT 9999 NSW BKN030 BKN230 BY ETGL
Forecast period: 1100 to 1800 UTC 22 April 2021
Forecast type: TEMPORARY: The following changes expected for less than half the time period
Winds: from the NNW (330 degrees) at 21 MPH (18 knots; 9.3 m/s)
gusting to 34 MPH (30 knots; 15.4 m/s)
Visibility: 6 or more miles (10+ km)
Ceiling: 3000 feet AGL
Clouds: broken clouds at 3000 feet AGL
broken clouds at 23000 feet AGL
Weather: NSW  (no significant weather)